Time;durP1;ratioP1;P1;durP2;ratioP2;P2;SDS_P1;SDS_P2;PMS_P1;PMS_P2;Temp;Humidity;BMP_temperature;BMP_pressure;BME280_temperature;BME280_humidity;BME280_pressure;Samples;Min_cycle;Max_cycle;Signal;HPM_P1;HPM_P2
2022/09/25 00:01:18;;;;;;;3.88;2.75;;;;;;;12.90;76.71;101469.31;6092897;23;20013;-91
2022/09/25 00:03:43;;;;;;;6.93;2.60;;;;;;;12.89;77.17;101466.72;6094892;23;20094;-90
2022/09/25 00:06:16;;;;;;;9.70;2.67;;;;;;;12.86;77.12;101472.13;6094526;23;20083;-90
2022/09/25 00:08:41;;;;;;;4.93;2.72;;;;;;;12.88;77.14;101473.81;6120650;23;20013;-90
2022/09/25 00:11:12;;;;;;;10.80;2.58;;;;;;;12.88;76.75;101480.91;6120229;23;20430;-89
2022/09/25 00:13:39;;;;;;;8.65;3.20;;;;;;;12.72;77.04;101470.03;6122075;23;20010;-89
2022/09/25 00:16:05;;;;;;;10.55;2.67;;;;;;;12.73;76.82;101482.41;6120113;23;20006;-89
2022/09/25 00:21:16;;;;;;;5.95;2.42;;;;;;;12.64;77.49;101470.34;6119446;23;20025;-89
2022/09/25 00:23:43;;;;;;;6.97;2.75;;;;;;;12.69;77.50;101481.63;6095517;23;20053;-89
2022/09/25 00:26:11;;;;;;;8.73;3.28;;;;;;;12.71;77.01;101486.88;6091884;23;20009;-89
2022/09/25 00:28:38;;;;;;;7.82;3.05;;;;;;;12.59;76.97;101480.28;6094863;23;20010;-88
2022/09/25 00:31:05;;;;;;;9.48;2.83;;;;;;;12.64;77.38;101482.75;6120521;23;20002;-89
2022/09/25 00:33:31;;;;;;;10.27;2.90;;;;;;;12.60;76.93;101489.94;6120990;23;20037;-89
2022/09/25 00:36:06;;;;;;;8.20;3.10;;;;;;;12.64;77.14;101490.72;6118366;23;20032;-89
2022/09/25 00:38:32;;;;;;;9.18;2.83;;;;;;;12.57;77.27;101474.13;6119884;23;20006;-89
2022/09/25 00:40:58;;;;;;;5.35;2.45;;;;;;;12.68;76.96;101479.91;6120896;23;20454;-88
2022/09/25 00:43:44;;;;;;;7.38;2.38;;;;;;;12.64;76.58;101474.78;6120102;23;20002;-89
2022/09/25 00:46:19;;;;;;;4.13;2.13;;;;;;;12.57;76.31;101467.97;6121422;23;20006;-88
2022/09/25 00:48:54;;;;;;;9.25;2.58;;;;;;;12.55;76.94;101462.75;6124030;23;20430;-89
2022/09/25 00:51:27;;;;;;;6.88;2.15;;;;;;;12.48;76.97;101467.41;6122163;23;20010;-89
2022/09/25 00:53:53;;;;;;;6.40;2.30;;;;;;;12.46;76.61;101465.75;6095654;23;20092;-89
2022/09/25 00:56:19;;;;;;;6.80;2.40;;;;;;;12.50;76.86;101485.94;6120363;23;20017;-89
2022/09/25 00:58:44;;;;;;;5.05;1.98;;;;;;;12.48;76.63;101478.00;6095438;23;20009;-89
2022/09/25 01:01:10;;;;;;;4.78;2.20;;;;;;;12.45;76.92;101486.09;6121728;23;20002;-89
2022/09/25 01:03:36;;;;;;;8.65;2.30;;;;;;;12.40;76.41;101468.59;6097580;23;20002;-89
2022/09/25 01:06:01;;;;;;;5.93;2.25;;;;;;;12.45;77.16;101488.75;6095648;23;20041;-88
2022/09/25 01:08:29;;;;;;;8.02;2.40;;;;;;;12.41;76.45;101487.13;6123276;23;20060;-88
2022/09/25 01:10:55;;;;;;;5.13;2.00;;;;;;;12.49;76.59;101490.34;6122002;23;20014;-90
2022/09/25 01:13:21;;;;;;;6.72;2.20;;;;;;;12.50;76.67;101483.28;6123087;23;20385;-89
2022/09/25 01:16:19;;;;;;;10.90;2.35;;;;;;;12.42;76.72;101480.91;6120563;23;20005;-90
2022/09/25 01:19:02;;;;;;;6.20;2.60;;;;;;;12.46;77.11;101493.13;6124054;23;20097;-89
2022/09/25 01:21:38;;;;;;;5.72;2.25;;;;;;;12.41;77.04;101480.97;6124154;23;20135;-89
2022/09/25 01:24:33;;;;;;;8.10;2.80;;;;;;;12.48;76.44;101485.09;6094681;23;20017;-90
2022/09/25 01:27:27;;;;;;;11.13;2.55;;;;;;;12.44;76.58;101494.09;6095398;23;20033;-89
2022/09/25 01:30:07;;;;;;;5.82;2.50;;;;;;;12.31;76.97;101495.47;6123239;23;20009;-89
2022/09/25 01:32:42;;;;;;;4.43;2.30;;;;;;;12.27;77.23;101493.88;6094379;23;20009;-89
2022/09/25 01:35:18;;;;;;;9.02;2.53;;;;;;;12.27;77.61;101501.81;6123270;23;20009;-88
2022/09/25 01:37:58;;;;;;;7.15;2.50;;;;;;;12.18;76.96;101495.06;6121303;23;20451;-89
2022/09/25 01:40:28;;;;;;;8.10;2.83;;;;;;;12.08;77.72;101504.28;6123398;23;20009;-89
2022/09/25 01:43:00;;;;;;;5.80;2.42;;;;;;;12.06;77.48;101504.31;6092201;23;20011;-89
2022/09/25 01:45:56;;;;;;;7.00;2.58;;;;;;;12.15;77.30;101503.13;6110392;23;20538;-89
2022/09/25 01:48:26;;;;;;;8.48;2.78;;;;;;;12.08;77.62;101494.53;6123147;23;20006;-89
2022/09/25 01:51:04;;;;;;;8.35;2.55;;;;;;;12.11;77.22;101499.72;6122172;23;20014;-90
2022/09/25 01:53:38;;;;;;;6.43;2.58;;;;;;;12.04;77.44;101513.25;6123036;23;20006;-89
2022/09/25 01:56:12;;;;;;;9.23;2.47;;;;;;;11.95;77.31;101504.69;6094587;23;20171;-89
2022/09/25 01:58:42;;;;;;;6.82;2.25;;;;;;;11.99;77.68;101519.56;6121314;23;20002;-89
2022/09/25 02:01:13;;;;;;;8.43;2.38;;;;;;;11.93;77.26;101514.47;6119622;23;20457;-89
2022/09/25 02:03:46;;;;;;;3.73;1.90;;;;;;;11.81;77.07;101511.38;6094214;23;20044;-89
2022/09/25 02:06:18;;;;;;;9.02;2.70;;;;;;;11.80;77.40;101510.50;6120652;23;20244;-89
2022/09/25 02:08:51;;;;;;;;;;;;;;;11.94;76.40;101520.66;6096377;23;20002;-89
2022/09/25 02:11:16;;;;;;;5.35;2.28;;;;;;;11.76;77.31;101514.19;6121790;23;19920;-90
2022/09/25 02:13:57;;;;;;;7.93;2.58;;;;;;;11.71;77.49;101503.75;6119938;23;20013;-90
2022/09/25 02:16:36;;;;;;;6.43;2.22;;;;;;;11.68;77.43;101503.84;6091145;23;20006;-89
2022/09/25 02:22:08;;;;;;;6.85;2.15;;;;;;;11.49;77.35;101510.66;6120090;23;20020;-88
2022/09/25 02:25:11;;;;;;;6.20;2.22;;;;;;;11.53;78.08;101500.84;6095338;23;20036;-89
2022/09/25 02:27:37;;;;;;;5.93;2.47;;;;;;;11.40;77.23;101489.78;6121175;23;20006;-89
2022/09/25 02:30:03;;;;;;;5.65;2.53;;;;;;;11.36;76.87;101506.69;6121210;23;20006;-90
2022/09/25 02:32:30;;;;;;;10.07;2.75;;;;;;;11.21;76.86;101508.91;6091686;23;20014;-89
2022/09/25 02:34:58;;;;;;;6.45;2.92;;;;;;;11.16;77.92;101507.34;6119711;23;20010;-89
2022/09/25 02:37:25;;;;;;;4.68;2.50;;;;;;;11.01;77.33;101502.53;6093051;23;20044;-89
2022/09/25 02:39:54;;;;;;;7.57;2.05;;;;;;;11.02;78.76;101510.44;6121433;23;20493;-89
2022/09/25 02:42:50;;;;;;;6.70;2.47;;;;;;;11.09;78.73;101503.16;6120574;23;20040;-88
2022/09/25 02:45:50;;;;;;;6.00;2.50;;;;;;;11.03;78.30;101495.41;6119729;23;20041;-88
2022/09/25 02:48:37;;;;;;;8.57;2.15;;;;;;;11.07;78.26;101511.13;6094071;23;20045;-88
2022/09/25 02:51:16;;;;;;;6.00;2.53;;;;;;;11.01;77.89;101497.25;6120238;23;20438;-89
2022/09/25 02:54:00;;;;;;;7.32;2.40;;;;;;;11.00;77.90;101496.34;6122073;23;20005;-89
2022/09/25 02:56:31;;;;;;;7.35;2.45;;;;;;;10.93;77.31;101489.53;6119273;23;20013;-89
2022/09/25 02:59:01;;;;;;;5.22;2.40;;;;;;;10.82;76.80;101483.69;6120429;23;20076;-88
2022/09/25 03:01:30;;;;;;;5.65;2.55;;;;;;;10.71;76.95;101495.47;6091898;23;20057;-88
2022/09/25 03:03:58;;;;;;;7.05;2.70;;;;;;;10.64;79.00;101485.16;6119826;23;20014;-89
2022/09/25 03:06:25;;;;;;;4.43;2.40;;;;;;;10.56;77.04;101480.09;6121013;23;20001;-88
2022/09/25 03:08:55;;;;;;;5.45;2.58;;;;;;;10.38;77.57;101472.69;6121993;23;20002;-88
2022/09/25 03:11:22;;;;;;;3.17;2.13;;;;;;;10.35;77.41;101486.88;6121115;23;20002;-88
2022/09/25 03:14:14;;;;;;;5.10;2.88;;;;;;;10.43;78.39;101495.44;6118875;23;20009;-88
2022/09/25 03:16:50;;;;;;;7.70;2.97;;;;;;;10.37;78.86;101476.25;6113537;23;20385;-90
2022/09/25 03:19:18;;;;;;;5.80;2.40;;;;;;;10.32;79.53;101486.97;6119280;23;20064;-88
2022/09/25 03:21:43;;;;;;;4.75;3.03;;;;;;;10.36;78.84;101487.75;6121530;23;20017;-88
2022/09/25 03:24:09;;;;;;;6.47;2.75;;;;;;;10.31;78.10;101479.94;6094108;23;20010;-89
2022/09/25 03:26:34;;;;;;;6.57;2.72;;;;;;;10.23;78.15;101466.91;6118508;23;20017;-89
2022/09/25 03:29:01;;;;;;;7.78;2.97;;;;;;;10.40;79.68;101482.31;6117250;23;20013;-88
2022/09/25 03:31:28;;;;;;;8.15;3.13;;;;;;;10.44;79.78;101480.44;6089861;23;20013;-89
2022/09/25 03:33:54;;;;;;;6.40;2.83;;;;;;;10.56;79.97;101490.66;6120090;23;20085;-89
2022/09/25 03:36:22;;;;;;;5.68;2.83;;;;;;;10.56;79.58;101490.66;6119945;23;20394;-90
2022/09/25 03:38:49;;;;;;;5.88;3.38;;;;;;;10.46;80.25;101487.44;6119236;23;20006;-89
2022/09/25 03:41:20;;;;;;;10.25;3.25;;;;;;;10.33;78.89;101485.19;6120698;23;20375;-90
2022/09/25 03:43:49;;;;;;;8.35;3.45;;;;;;;10.38;78.45;101497.34;6092968;23;20125;-88
2022/09/25 03:46:15;;;;;;;12.32;3.72;;;;;;;10.27;78.64;101482.72;6117633;23;20006;-89
2022/09/25 03:48:41;;;;;;;5.00;2.80;;;;;;;10.21;77.97;101484.59;6121502;23;20005;-89
2022/09/25 03:51:07;;;;;;;6.18;2.90;;;;;;;10.18;79.79;101479.38;6120431;23;20017;-89
2022/09/25 03:53:34;;;;;;;9.43;3.30;;;;;;;10.22;79.65;101491.59;6119582;23;20493;-89
2022/09/25 03:56:01;;;;;;;8.88;3.03;;;;;;;10.10;80.20;101485.78;6093627;23;20039;-88
2022/09/25 03:58:28;;;;;;;5.82;2.88;;;;;;;10.03;79.50;101484.25;6120005;23;20017;-88
2022/09/25 04:00:56;;;;;;;6.72;3.10;;;;;;;9.97;79.73;101490.53;6118571;23;20006;-89
2022/09/25 04:03:22;;;;;;;4.68;2.65;;;;;;;9.96;79.93;101494.09;6120254;23;20166;-88
2022/09/25 04:05:48;;;;;;;7.88;3.40;;;;;;;9.98;81.79;101487.00;6094347;23;20241;-88
2022/09/25 04:08:13;;;;;;;10.57;3.50;;;;;;;9.91;80.22;101482.78;6092292;23;20006;-88
2022/09/25 04:10:39;;;;;;;9.68;3.28;;;;;;;9.97;80.41;101490.53;6120539;23;20013;-88
2022/09/25 04:13:11;;;;;;;8.60;4.00;;;;;;;10.04;81.79;101488.63;6119768;23;20006;-88
2022/09/25 04:15:38;;;;;;;10.10;3.45;;;;;;;10.11;81.96;101487.53;6119224;23;20438;-89
2022/09/25 04:18:04;;;;;;;6.93;4.15;;;;;;;10.07;81.06;101483.22;6092287;23;20511;-88
2022/09/25 04:20:30;;;;;;;8.75;3.70;;;;;;;9.99;80.85;101474.66;6093500;23;20002;-88
2022/09/25 04:22:55;;;;;;;8.90;3.65;;;;;;;9.93;79.91;101487.13;6092772;23;20438;-88
2022/09/25 04:25:24;;;;;;;7.60;3.53;;;;;;;9.86;79.82;101467.06;6119468;23;20085;-89
2022/09/25 04:27:54;;;;;;;7.50;3.67;;;;;;;9.87;80.34;101474.06;6092904;23;20010;-89
2022/09/25 04:30:25;;;;;;;11.23;3.22;;;;;;;9.82;79.82;101470.69;6093274;23;20041;-88
2022/09/25 04:35:35;;;;;;;12.52;3.70;;;;;;;9.77;80.61;101480.53;6116864;23;20025;-90
2022/09/25 04:38:01;;;;;;;6.90;3.92;;;;;;;9.83;82.02;101482.13;6118054;23;20446;-90
2022/09/25 04:40:28;;;;;;;13.00;4.75;;;;;;;9.96;81.77;101499.38;6094074;23;20001;-88
2022/09/25 04:42:58;;;;;;;8.48;4.25;;;;;;;9.96;81.13;101497.59;6118658;23;20006;-89
2022/09/25 04:45:25;;;;;;;5.97;3.95;;;;;;;9.91;80.72;101493.34;6118703;23;20018;-88
2022/09/25 04:47:52;;;;;;;8.90;4.10;;;;;;;9.79;80.15;101475.19;6120102;23;20077;-89
2022/09/25 04:50:18;;;;;;;9.35;3.88;;;;;;;9.76;80.60;101475.28;6119695;23;20084;-88
2022/09/25 04:52:43;;;;;;;10.95;4.43;;;;;;;9.74;81.07;101471.81;6094153;23;20010;-89
2022/09/25 04:55:08;;;;;;;9.93;4.15;;;;;;;9.74;80.57;101474.44;6119392;23;20382;-88
2022/09/25 04:57:34;;;;;;;9.43;4.47;;;;;;;9.84;82.00;101483.84;6093375;23;20018;-89
2022/09/25 05:00:00;;;;;;;13.10;4.80;;;;;;;9.91;81.52;101488.06;6094869;23;20085;-88
2022/09/25 05:02:27;;;;;;;7.00;3.67;;;;;;;9.80;80.00;101476.94;6089684;23;20013;-88
2022/09/25 05:04:52;;;;;;;7.10;4.10;;;;;;;9.77;80.03;101477.00;6092104;23;20181;-88
2022/09/25 05:07:17;;;;;;;7.32;3.90;;;;;;;9.65;79.20;101475.53;6094843;23;20013;-88
2022/09/25 05:09:42;;;;;;;9.43;4.70;;;;;;;9.60;79.37;101482.72;6119911;23;20009;-88
2022/09/25 05:12:08;;;;;;;7.68;3.97;;;;;;;9.51;80.32;101475.03;6118637;23;20006;-88
2022/09/25 05:14:33;;;;;;;7.30;3.85;;;;;;;9.32;79.01;101467.59;6093330;23;20486;-89
2022/09/25 05:17:00;;;;;;;6.00;3.58;;;;;;;9.18;78.99;101473.19;6091743;23;20005;-88
2022/09/25 05:19:26;;;;;;;7.53;4.13;;;;;;;9.04;78.79;101461.25;6119860;23;20033;-89
2022/09/25 05:21:52;;;;;;;7.43;3.40;;;;;;;9.00;78.70;101473.66;6120699;23;20251;-88
2022/09/25 05:24:17;;;;;;;6.45;4.18;;;;;;;8.91;81.29;101464.19;6093590;23;20009;-89
2022/09/25 05:26:43;;;;;;;6.85;4.00;;;;;;;8.92;79.47;101471.19;6119172;23;20818;-89
2022/09/25 05:29:09;;;;;;;6.35;3.42;;;;;;;8.94;80.70;101461.47;6091771;23;20435;-89
2022/09/25 05:31:35;;;;;;;8.00;3.78;;;;;;;8.90;81.32;101458.94;6091356;23;20378;-89
2022/09/25 05:34:00;;;;;;;6.07;3.88;;;;;;;8.90;80.69;101466.84;6120396;23;20420;-89
2022/09/25 05:36:26;;;;;;;8.15;4.82;;;;;;;9.05;80.94;101478.84;6096248;23;20010;-89
2022/09/25 05:38:51;;;;;;;7.85;3.70;;;;;;;9.04;80.82;101462.13;6095025;23;20013;-89
2022/09/25 05:41:17;;;;;;;7.32;3.90;;;;;;;9.04;80.86;101459.47;6121419;23;20010;-89
2022/09/25 05:43:46;;;;;;;7.82;4.60;;;;;;;9.20;80.48;101481.09;6096136;23;20018;-90
2022/09/25 05:46:12;;;;;;;6.50;4.40;;;;;;;9.17;79.79;101481.16;6120240;23;20053;-90
2022/09/25 05:48:37;;;;;;;6.82;3.85;;;;;;;9.10;81.07;101475.19;6094339;23;20006;-90
2022/09/25 05:51:03;;;;;;;6.70;3.90;;;;;;;9.13;80.66;101467.16;6095278;23;20339;-89
2022/09/25 05:53:29;;;;;;;11.07;4.25;;;;;;;9.15;80.00;101477.72;6121684;23;20040;-89
2022/09/25 05:55:58;;;;;;;6.45;4.03;;;;;;;9.09;80.02;101481.38;6095930;23;20068;-89
2022/09/25 05:58:24;;;;;;;7.95;3.80;;;;;;;9.04;79.88;101477.94;6123051;23;20093;-89
2022/09/25 06:00:49;;;;;;;10.73;4.50;;;;;;;8.93;80.02;101465.00;6118554;23;20057;-90
2022/09/25 06:03:16;;;;;;;5.22;3.80;;;;;;;9.00;80.41;101478.94;6119400;23;20018;-89
2022/09/25 06:05:41;;;;;;;8.52;4.28;;;;;;;9.06;80.72;101491.97;6119911;23;20002;-89
2022/09/25 06:08:07;;;;;;;8.40;4.47;;;;;;;9.15;82.40;101499.69;6122636;23;20006;-89
2022/09/25 06:10:33;;;;;;;9.23;4.63;;;;;;;9.09;81.07;101480.47;6096269;23;20006;-89
2022/09/25 06:13:00;;;;;;;10.07;4.95;;;;;;;9.20;82.26;101489.88;6120809;23;20116;-89
2022/09/25 06:15:35;;;;;;;7.85;4.65;;;;;;;9.18;81.50;101478.47;6094365;23;20494;-89
2022/09/25 06:18:00;;;;;;;6.28;4.15;;;;;;;9.27;81.13;101479.16;6120445;23;20060;-89
2022/09/25 06:20:26;;;;;;;9.07;5.07;;;;;;;9.36;82.21;101474.53;6093792;23;20001;-89
2022/09/25 06:22:56;;;;;;;7.97;5.05;;;;;;;9.43;82.48;101472.63;6121320;23;20462;-89
2022/09/25 06:25:24;;;;;;;9.80;5.35;;;;;;;9.56;83.19;101484.59;6095374;23;20335;-89
2022/09/25 06:27:54;;;;;;;10.82;7.10;;;;;;;9.74;83.81;101495.56;6121556;23;20338;-89
2022/09/25 06:30:20;;;;;;;12.07;8.13;;;;;;;9.85;83.76;101488.25;6119199;23;20338;-90
2022/09/25 06:32:46;;;;;;;12.23;6.28;;;;;;;9.90;83.56;101484.56;6091956;23;20006;-90
2022/09/25 06:35:12;;;;;;;10.43;6.82;;;;;;;9.92;83.83;101473.94;6119120;23;20017;-91
2022/09/25 06:37:37;;;;;;;13.65;6.18;;;;;;;10.03;83.60;101477.19;6096635;23;20017;-90
2022/09/25 06:40:03;;;;;;;9.98;6.10;;;;;;;10.14;83.77;101483.03;6123589;23;20008;-90
2022/09/25 06:42:28;;;;;;;9.20;6.03;;;;;;;10.26;83.62;101495.06;6120778;23;20016;-90
2022/09/25 06:44:53;;;;;;;8.18;5.43;;;;;;;10.33;83.98;101488.69;6094208;23;20140;-90
2022/09/25 06:47:20;;;;;;;15.57;5.93;;;;;;;10.36;83.50;101491.25;6119399;23;20014;-90
2022/09/25 06:49:45;;;;;;;13.30;6.13;;;;;;;10.39;83.57;101488.50;6120601;23;20010;-90
2022/09/25 06:52:11;;;;;;;11.77;7.00;;;;;;;10.46;83.75;101483.91;6093161;23;20481;-89
2022/09/25 06:54:36;;;;;;;13.68;6.28;;;;;;;10.56;84.51;101503.88;6121007;23;20370;-90
2022/09/25 06:57:01;;;;;;;12.63;6.22;;;;;;;10.66;84.58;101502.69;6094860;23;20010;-90
2022/09/25 06:59:27;;;;;;;11.82;6.22;;;;;;;10.64;84.18;101491.31;6120493;23;20426;-90
2022/09/25 07:01:52;;;;;;;14.50;6.03;;;;;;;10.73;83.77;101490.16;6094416;23;20005;-89
2022/09/25 07:04:17;;;;;;;10.25;5.60;;;;;;;10.82;83.67;101497.81;6094341;23;20006;-89
2022/09/25 07:06:43;;;;;;;10.95;5.85;;;;;;;10.89;83.60;101502.00;6093015;23;20002;-90
2022/09/25 07:09:09;;;;;;;8.00;5.53;;;;;;;10.87;83.42;101487.97;6121714;23;20077;-89
2022/09/25 07:11:34;;;;;;;8.80;4.97;;;;;;;11.04;83.23;101507.72;6094182;23;20081;-89
2022/09/25 07:14:00;;;;;;;10.60;5.68;;;;;;;11.01;83.46;101489.31;6121610;23;20006;-89
2022/09/25 07:16:28;;;;;;;12.93;5.55;;;;;;;11.18;82.91;101516.94;6118740;23;20024;-88
2022/09/25 07:18:56;;;;;;;10.05;5.32;;;;;;;11.24;82.88;101515.91;6119950;23;20316;-89
2022/09/25 07:21:23;;;;;;;8.95;5.55;;;;;;;11.29;83.01;101505.19;6119600;23;20068;-89
2022/09/25 07:23:50;;;;;;;10.18;5.40;;;;;;;11.39;83.03;101519.84;6119757;23;20036;-88
2022/09/25 07:26:22;;;;;;;10.90;5.28;;;;;;;11.49;82.48;101523.91;6119160;23;20449;-88
2022/09/25 07:28:59;;;;;;;7.50;4.88;;;;;;;11.52;82.46;101512.34;6120396;23;20010;-88
2022/09/25 07:31:33;;;;;;;11.70;5.20;;;;;;;11.62;82.54;101522.59;6092424;23;20005;-88
2022/09/25 07:34:01;;;;;;;9.88;5.70;;;;;;;11.69;82.16;101523.22;6118906;23;20452;-88
2022/09/25 07:36:27;;;;;;;9.85;5.18;;;;;;;11.77;82.78;101525.63;6119746;23;20010;-88
2022/09/25 07:38:53;;;;;;;6.47;4.13;;;;;;;11.79;82.45;101513.19;6094593;23;20469;-88
2022/09/25 07:41:21;;;;;;;6.95;4.55;;;;;;;11.92;82.82;101523.34;6120009;23;20002;-88
2022/09/25 07:43:51;;;;;;;8.77;4.18;;;;;;;12.06;82.11;101519.34;6118892;23;20022;-87
2022/09/25 07:46:17;;;;;;;8.55;4.05;;;;;;;12.25;81.66;101512.47;6091939;23;20343;-87
2022/09/25 07:48:42;;;;;;;9.60;3.65;;;;;;;12.52;81.25;101505.28;6119801;23;20013;-86
2022/09/25 07:51:10;;;;;;;6.20;3.08;;;;;;;12.90;80.75;101511.75;6119709;23;20010;-86
2022/09/25 07:53:36;;;;;;;8.68;3.63;;;;;;;13.28;80.39;101510.25;6120420;23;20002;-86
2022/09/25 07:56:02;;;;;;;7.13;2.90;;;;;;;13.61;77.77;101512.44;6119289;23;20017;-86
2022/09/25 07:58:28;;;;;;;7.07;3.45;;;;;;;13.93;75.75;101510.22;6094066;23;20085;-86
2022/09/25 08:00:58;;;;;;;7.93;2.67;;;;;;;14.20;74.11;101519.66;6093270;23;20430;-85
2022/09/25 08:03:23;;;;;;;5.88;2.63;;;;;;;14.48;73.28;101507.81;6092336;23;20184;-85
2022/09/25 08:05:59;;;;;;;7.40;2.80;;;;;;;14.83;72.87;101515.94;6119486;23;20612;-85
2022/09/25 08:08:29;;;;;;;2.63;2.28;;;;;;;15.11;72.22;101502.16;6120562;23;20006;-86
2022/09/25 08:11:03;;;;;;;5.72;2.15;;;;;;;15.48;71.12;101511.88;6093230;23;20483;-87
2022/09/25 08:13:31;;;;;;;3.75;1.80;;;;;;;15.81;68.61;101517.38;6119737;23;20041;-86
2022/09/25 08:15:56;;;;;;;5.10;2.08;;;;;;;16.10;66.36;101509.66;6117146;23;20059;-86
2022/09/25 08:18:21;;;;;;;4.28;2.00;;;;;;;16.48;65.45;101507.59;6118696;23;20013;-86
2022/09/25 08:20:47;;;;;;;4.15;1.90;;;;;;;16.88;65.17;101497.41;6116260;23;20005;-86
2022/09/25 08:23:12;;;;;;;5.00;1.98;;;;;;;17.17;63.44;101509.16;6120260;23;20002;-86
2022/09/25 08:25:37;;;;;;;5.93;1.60;;;;;;;17.40;63.28;101506.00;6118570;23;19998;-86
2022/09/25 08:28:02;;;;;;;3.08;1.65;;;;;;;17.76;62.79;101508.34;6119953;23;20069;-85
2022/09/25 08:30:28;;;;;;;5.60;1.73;;;;;;;18.19;60.31;101503.09;6118100;23;20330;-86
2022/09/25 08:32:53;;;;;;;5.10;1.58;;;;;;;18.46;59.82;101500.50;6120195;23;20076;-85
2022/09/25 08:35:19;;;;;;;6.78;1.98;;;;;;;18.71;58.16;101504.34;6117331;23;20140;-86
2022/09/25 08:37:45;;;;;;;2.85;1.50;;;;;;;18.99;57.69;101504.31;6092772;23;20033;-85
2022/09/25 08:40:19;;;;;;;4.95;1.52;;;;;;;19.40;58.97;101508.78;6118460;23;20005;-86
2022/09/25 08:42:47;;;;;;;2.55;1.48;;;;;;;19.74;55.46;101511.88;6115937;23;20006;-86
2022/09/25 08:51:14;;;;;;;3.60;1.50;;;;;;;20.74;52.91;101513.84;6117007;23;20083;-86
2022/09/25 08:53:42;;;;;;;3.35;1.27;;;;;;;21.10;51.19;101508.47;6092817;23;20100;-86
2022/09/25 08:56:13;;;;;;;3.92;1.27;;;;;;;21.38;50.03;101507.31;6117664;23;20013;-86
2022/09/25 08:58:41;;;;;;;4.47;1.33;;;;;;;21.87;48.46;101514.34;6117079;23;20010;-86
2022/09/25 09:01:12;;;;;;;2.85;1.33;;;;;;;22.31;47.45;101515.44;6118042;23;20244;-86
2022/09/25 09:03:55;;;;;;;3.72;1.08;;;;;;;23.01;49.17;101500.84;6118532;23;20482;-86
2022/09/25 09:06:24;;;;;;;2.13;0.98;;;;;;;23.48;45.28;101500.56;6117657;23;20041;-86
2022/09/25 09:08:57;;;;;;;10.02;1.50;;;;;;;23.80;43.33;101506.84;6118598;23;20013;-86
2022/09/25 09:11:32;;;;;;;6.30;1.48;;;;;;;24.35;44.34;101502.06;6119905;23;20469;-86
2022/09/25 09:14:15;;;;;;;3.88;1.10;;;;;;;24.77;43.77;101499.25;6121656;23;20036;-87
2022/09/25 09:16:45;;;;;;;3.78;1.38;;;;;;;25.07;40.36;101495.66;6119696;23;20052;-86
2022/09/25 09:19:11;;;;;;;4.50;1.42;;;;;;;25.56;37.66;101493.84;6119951;23;20441;-86
2022/09/25 09:22:10;;;;;;;3.10;1.30;;;;;;;26.05;41.63;101493.78;6120061;23;20006;-86
2022/09/25 09:24:54;;;;;;;2.80;1.10;;;;;;;26.19;40.20;101490.63;6110632;23;20006;-86
2022/09/25 09:27:31;;;;;;;6.05;1.23;;;;;;;26.33;39.07;101500.13;6118047;23;20080;-87
2022/09/25 09:30:18;;;;;;;2.60;1.00;;;;;;;26.96;37.99;101495.72;6120909;23;20077;-86
2022/09/25 09:33:15;;;;;;;3.70;1.20;;;;;;;26.34;40.10;101497.25;6122095;23;20013;-87
2022/09/25 09:36:04;;;;;;;2.28;0.80;;;;;;;27.25;37.17;101494.69;6095234;23;20338;-86
2022/09/25 09:39:00;;;;;;;4.18;0.88;;;;;;;28.03;35.29;101492.16;6119620;23;20002;-86
2022/09/25 09:41:39;;;;;;;3.80;1.00;;;;;;;27.74;32.63;101491.59;6090327;23;20077;-87
2022/09/25 09:44:24;;;;;;;5.80;0.88;;;;;;;29.11;35.18;101485.22;6067222;23;20026;-87
2022/09/25 09:47:02;;;;;;;3.75;1.10;;;;;;;27.66;34.12;101493.22;6090979;23;20010;-88
2022/09/25 09:49:41;;;;;;;1.65;0.85;;;;;;;28.14;35.78;101486.44;6119736;23;20453;-87
2022/09/25 09:52:20;;;;;;;6.50;1.15;;;;;;;29.00;32.18;101488.22;6092873;23;20010;-87
2022/09/25 09:54:58;;;;;;;3.25;0.73;;;;;;;28.27;32.90;101480.59;6121592;23;20072;-87
2022/09/25 09:57:26;;;;;;;4.72;0.82;;;;;;;29.46;30.54;101481.31;6119267;23;20037;-86
2022/09/25 10:00:00;;;;;;;3.20;0.90;;;;;;;30.41;30.07;101475.31;6093275;23;20060;-86
2022/09/25 10:02:35;;;;;;;3.13;1.30;;;;;;;29.58;29.88;101470.13;6120257;23;20040;-87
2022/09/25 10:05:06;;;;;;;1.42;0.52;;;;;;;28.16;31.59;101478.97;6118665;23;20006;-87
2022/09/25 10:07:35;;;;;;;3.78;1.00;;;;;;;29.53;28.84;101473.34;6119989;23;20181;-87
2022/09/25 10:10:00;;;;;;;3.00;0.90;;;;;;;30.49;27.47;101475.25;6118063;23;20010;-87
2022/09/25 10:12:35;;;;;;;2.17;0.70;;;;;;;30.07;29.92;101483.69;6122393;23;20002;-87
2022/09/25 10:15:11;;;;;;;2.88;0.70;;;;;;;28.94;29.81;101470.66;6093853;23;20632;-88
2022/09/25 10:17:36;;;;;;;5.70;1.05;;;;;;;28.76;31.10;101469.94;6119857;23;20086;-88
2022/09/25 10:20:22;;;;;;;3.97;0.65;;;;;;;29.31;32.47;101461.22;6121451;23;20026;-88
2022/09/25 10:22:52;;;;;;;3.53;1.30;;;;;;;31.03;28.38;101460.84;6121255;23;20006;-87
2022/09/25 10:25:36;;;;;;;3.42;0.77;;;;;;;31.90;28.45;101464.97;6123126;23;20013;-88
2022/09/25 10:28:20;;;;;;;2.65;0.73;;;;;;;32.80;26.97;101463.91;6116683;23;20031;-87
2022/09/25 10:30:46;;;;;;;1.83;0.60;;;;;;;32.67;22.85;101464.59;6092846;23;20005;-88
2022/09/25 10:33:19;;;;;;;3.15;0.70;;;;;;;32.36;24.12;101464.78;6122332;23;20101;-87
2022/09/25 10:35:45;;;;;;;3.20;1.00;;;;;;;31.24;24.58;101455.56;6122678;23;20084;-87
2022/09/25 10:38:43;;;;;;;5.38;1.00;;;;;;;31.96;27.38;101461.47;6120826;23;20006;-87
2022/09/25 10:41:14;;;;;;;2.72;0.80;;;;;;;30.87;26.16;101457.19;6119676;23;19997;-88
2022/09/25 10:44:00;;;;;;;5.00;0.88;;;;;;;28.48;30.45;101466.59;6121199;23;20108;-89
2022/09/25 10:50:09;;;;;;;2.80;0.73;;;;;;;26.73;32.01;101469.16;6120433;23;20006;-89
2022/09/25 10:52:14;;;;;;;4.22;0.63;;;;;;;28.63;29.46;101462.25;6122641;23;20024;-89
2022/09/25 10:54:40;;;;;;;2.85;0.68;;;;;;;29.71;27.24;101459.56;6093698;23;20342;-89
2022/09/25 10:57:24;;;;;;;3.85;1.05;;;;;;;30.51;27.07;101453.25;6119832;23;20020;-89
2022/09/25 10:59:50;;;;;;;4.43;0.82;;;;;;;28.63;27.36;101447.78;6120845;23;20016;-89
2022/09/25 11:02:35;;;;;;;3.08;1.00;;;;;;;27.30;31.19;101457.06;6095353;23;20006;-89
2022/09/25 11:05:01;;;;;;;3.88;0.80;;;;;;;25.78;32.69;101460.19;6094082;23;20014;-89
2022/09/25 11:07:27;;;;;;;4.15;0.73;;;;;;;24.72;33.42;101454.69;6120587;23;20009;-89
2022/09/25 11:09:53;;;;;;;3.15;0.75;;;;;;;24.78;34.87;101452.28;6095428;23;20006;-90
2022/09/25 11:12:22;;;;;;;2.55;0.82;;;;;;;26.21;32.60;101442.56;6122006;23;20037;-91
2022/09/25 11:15:01;;;;;;;3.75;1.00;;;;;;;27.18;31.57;101450.16;6120711;23;20033;-90
2022/09/25 11:17:39;;;;;;;1.92;0.80;;;;;;;27.96;30.37;101459.31;6120156;23;20012;-90
2022/09/25 11:20:20;;;;;;;3.65;0.80;;;;;;;28.43;30.03;101455.34;6095363;23;20362;-89
2022/09/25 11:23:33;;;;;;;2.95;1.00;;;;;;;28.27;30.60;101455.25;6121746;23;20040;-89
2022/09/25 11:26:10;;;;;;;2.28;0.60;;;;;;;27.26;30.77;101454.81;6094415;23;20501;-91
2022/09/25 11:28:56;;;;;;;6.28;1.08;;;;;;;27.44;31.71;101456.53;6120987;23;20496;-91
2022/09/25 11:31:35;;;;;;;1.88;0.90;;;;;;;27.67;31.03;101450.59;6120609;23;20006;-90
2022/09/25 11:34:13;;;;;;;2.85;0.70;;;;;;;28.07;28.05;101450.06;6119382;23;20016;-90
2022/09/25 11:36:49;;;;;;;2.92;0.98;;;;;;;28.13;29.11;101437.69;6093660;23;20016;-90
2022/09/25 11:42:38;;;;;;;0.70;0.63;;;;;;;27.50;29.09;101443.31;6120760;23;20017;-91
2022/09/25 11:45:13;;;;;;;3.25;0.57;;;;;;;27.38;29.35;101435.44;6093723;23;20029;-90
2022/09/25 11:47:53;;;;;;;2.13;0.50;;;;;;;27.11;30.54;101441.78;6119168;23;20048;-91
2022/09/25 11:50:21;;;;;;;1.40;0.77;;;;;;;26.24;31.45;101433.25;6093481;23;20439;-90
2022/09/25 11:53:09;;;;;;;1.90;0.57;;;;;;;26.51;32.60;101421.59;6120791;23;20620;-91
2022/09/25 11:55:35;;;;;;;4.80;0.60;;;;;;;26.60;30.77;101424.25;6091039;23;20465;-90
2022/09/25 11:58:25;;;;;;;2.25;0.60;;;;;;;26.95;31.18;101414.44;6117012;23;20002;-91
2022/09/25 12:01:05;;;;;;;2.47;0.73;;;;;;;27.47;28.50;101417.34;6090872;23;20493;-89
2022/09/25 12:03:50;;;;;;;3.05;0.60;;;;;;;26.82;30.82;101414.84;6116750;23;20009;-90
2022/09/25 12:06:54;;;;;;;1.85;0.60;;;;;;;27.35;31.07;101416.72;6117659;23;19998;-91